Time;durP1;ratioP1;P1;durP2;ratioP2;P2;SDS_P1;SDS_P2;PMS_P1;PMS_P2;Temp;Humidity;BMP_temperature;BMP_pressure;BME280_temperature;BME280_humidity;BME280_pressure;Samples;Min_cycle;Max_cycle;Signal;HPM_P1;HPM_P2
2021/11/04 00:00:27;;;;;;;4.65;4.15;;;24.30;41.00;;;;;;5024967;28;20088;-57
2021/11/04 00:02:55;;;;;;;6.90;5.20;;;24.30;41.10;;;;;;5030258;28;20140;-57
2021/11/04 00:05:24;;;;;;;5.32;4.82;;;24.20;41.00;;;;;;5029469;28;20442;-57
2021/11/04 00:07:52;;;;;;;7.00;5.15;;;24.20;41.10;;;;;;5026894;28;20080;-56
2021/11/04 00:10:21;;;;;;;7.53;5.25;;;24.20;41.10;;;;;;5035788;28;20497;-57
2021/11/04 00:12:48;;;;;;;6.03;4.55;;;24.20;41.10;;;;;;5050104;28;20123;-57
2021/11/04 00:15:16;;;;;;;5.63;4.97;;;24.20;41.20;;;;;;5050043;28;20216;-57
2021/11/04 00:17:43;;;;;;;4.60;4.20;;;24.20;41.10;;;;;;5049044;28;20827;-57
2021/11/04 00:20:12;;;;;;;5.20;4.50;;;24.20;41.10;;;;;;5032603;28;20052;-57
2021/11/04 00:22:40;;;;;;;5.72;4.50;;;24.20;41.20;;;;;;5049696;28;20460;-57
2021/11/04 00:25:08;;;;;;;6.72;4.95;;;24.20;41.20;;;;;;5048476;28;20469;-59
2021/11/04 00:27:36;;;;;;;7.15;4.75;;;24.20;41.20;;;;;;5044378;28;20181;-57
2021/11/04 00:30:06;;;;;;;5.05;4.22;;;24.20;41.20;;;;;;5031407;28;20155;-56
2021/11/04 00:32:34;;;;;;;7.82;4.88;;;24.20;41.20;;;;;;5044934;28;20460;-56
2021/11/04 00:35:01;;;;;;;6.13;4.57;;;24.20;41.20;;;;;;5044377;28;20633;-57
2021/11/04 00:37:28;;;;;;;4.88;3.92;;;24.20;41.20;;;;;;5045189;28;20128;-56
2021/11/04 00:39:55;;;;;;;5.97;4.78;;;24.20;41.20;;;;;;5030478;28;20139;-56
2021/11/04 00:42:22;;;;;;;4.63;4.20;;;24.20;41.20;;;;;;5034238;28;20408;-57
2021/11/04 00:44:49;;;;;;;5.65;4.55;;;24.20;41.20;;;;;;5024430;28;20049;-56
2021/11/04 00:47:16;;;;;;;6.30;4.18;;;24.20;41.20;;;;;;5028792;28;20604;-56
2021/11/04 00:49:43;;;;;;;4.95;4.43;;;24.20;41.80;;;;;;5026103;28;20057;-57
2021/11/04 00:52:11;;;;;;;5.05;4.40;;;24.20;41.20;;;;;;5028749;28;20130;-56
2021/11/04 00:54:38;;;;;;;5.35;4.22;;;24.10;41.10;;;;;;5028488;28;20104;-59
2021/11/04 00:57:05;;;;;;;5.32;4.55;;;24.10;41.20;;;;;;5028944;28;20072;-59
2021/11/04 00:59:33;;;;;;;5.05;4.22;;;24.10;41.20;;;;;;5032463;28;20106;-59
2021/11/04 01:02:00;;;;;;;5.22;4.53;;;24.10;41.20;;;;;;5027610;28;20106;-59
2021/11/04 01:04:28;;;;;;;4.90;4.22;;;24.10;41.20;;;;;;5029158;28;20110;-60
2021/11/04 01:06:55;;;;;;;6.03;4.43;;;24.10;41.20;;;;;;5028851;28;20582;-59
2021/11/04 01:09:22;;;;;;;5.45;4.47;;;24.10;41.20;;;;;;5029650;28;20082;-59
2021/11/04 01:11:49;;;;;;;4.93;4.18;;;24.10;41.20;;;;;;5048643;28;20535;-59
2021/11/04 01:14:17;;;;;;;5.38;4.53;;;24.10;41.20;;;;;;5049354;28;20088;-59
2021/11/04 01:16:44;;;;;;;4.57;4.03;;;24.10;41.20;;;;;;5046749;28;20094;-59
2021/11/04 01:19:12;;;;;;;4.50;4.10;;;24.10;41.20;;;;;;5036389;28;20109;-59
2021/11/04 01:21:41;;;;;;;5.07;4.15;;;24.10;41.20;;;;;;5023789;28;20189;-57
2021/11/04 01:24:08;;;;;;;4.85;4.35;;;24.10;41.30;;;;;;5024481;28;20056;-58
2021/11/04 01:26:35;;;;;;;4.97;3.85;;;24.10;41.20;;;;;;5024225;28;20049;-57
2021/11/04 01:29:03;;;;;;;4.93;4.40;;;24.10;41.20;;;;;;5015288;28;20315;-58
2021/11/04 01:31:30;;;;;;;5.40;4.07;;;24.10;41.20;;;;;;5023309;28;20106;-57
2021/11/04 01:33:57;;;;;;;4.82;3.80;;;24.10;41.30;;;;;;5023409;28;20138;-58
2021/11/04 01:36:24;;;;;;;4.72;4.15;;;24.10;41.30;;;;;;5023266;28;20540;-57
2021/11/04 01:38:51;;;;;;;5.32;3.80;;;24.10;41.40;;;;;;5019149;28;20083;-57
2021/11/04 01:41:19;;;;;;;5.28;4.47;;;24.00;41.30;;;;;;5021503;28;20049;-56
2021/11/04 01:43:46;;;;;;;5.57;4.20;;;24.10;41.40;;;;;;5027223;28;20609;-57
2021/11/04 01:46:13;;;;;;;4.30;3.58;;;24.10;41.40;;;;;;5026990;28;20080;-57
2021/11/04 01:48:40;;;;;;;4.32;3.88;;;24.10;41.40;;;;;;5027458;28;20407;-57
2021/11/04 01:51:07;;;;;;;4.32;3.90;;;24.10;41.40;;;;;;5024794;28;20056;-57
2021/11/04 01:53:34;;;;;;;3.97;3.58;;;24.10;41.40;;;;;;5024092;28;20057;-57
2021/11/04 01:56:02;;;;;;;5.20;4.22;;;24.10;41.40;;;;;;5022891;28;20063;-56
2021/11/04 01:58:29;;;;;;;4.38;3.78;;;24.10;41.40;;;;;;5023665;28;20054;-56
2021/11/04 02:00:56;;;;;;;5.88;4.65;;;24.10;41.40;;;;;;5026408;28;20049;-57
2021/11/04 02:03:43;;;;;;;5.07;3.92;;;24.10;41.40;;;;;;5023415;28;20049;-57
2021/11/04 02:06:39;;;;;;;3.50;3.20;;;24.10;41.40;;;;;;5023398;28;20060;-57
2021/11/04 02:09:15;;;;;;;4.05;3.35;;;24.10;41.30;;;;;;5026948;28;20088;-57
2021/11/04 02:11:59;;;;;;;4.72;3.90;;;24.10;41.30;;;;;;5042124;28;20493;-57
2021/11/04 02:14:39;;;;;;;4.05;3.45;;;24.10;41.30;;;;;;5042726;28;20134;-57
2021/11/04 02:17:07;;;;;;;3.60;3.30;;;24.10;41.30;;;;;;5042932;28;20048;-58
2021/11/04 02:19:49;;;;;;;4.00;3.60;;;24.10;41.30;;;;;;5030748;28;20491;-58
2021/11/04 02:22:51;;;;;;;4.55;3.15;;;24.10;41.30;;;;;;5041378;28;20054;-57
2021/11/04 02:25:23;;;;;;;4.78;3.63;;;24.10;41.30;;;;;;5045819;28;20052;-58
2021/11/04 02:27:53;;;;;;;4.55;3.72;;;24.10;41.30;;;;;;5041967;28;20049;-58
2021/11/04 02:30:23;;;;;;;4.78;3.70;;;24.00;41.30;;;;;;5022912;28;20080;-57
2021/11/04 02:32:51;;;;;;;4.13;3.23;;;24.10;41.30;;;;;;5025706;28;20106;-58
2021/11/04 02:35:19;;;;;;;4.85;3.72;;;24.00;41.30;;;;;;5026406;28;20991;-58
2021/11/04 02:37:48;;;;;;;3.97;3.47;;;24.00;41.30;;;;;;5026821;28;20056;-58
2021/11/04 02:40:16;;;;;;;4.10;3.42;;;24.00;41.30;;;;;;5029463;28;20133;-57
2021/11/04 02:42:44;;;;;;;4.13;3.47;;;24.00;41.30;;;;;;5033157;28;20548;-57
2021/11/04 02:45:13;;;;;;;5.03;3.78;;;24.00;41.30;;;;;;5026682;28;20052;-58
2021/11/04 02:47:42;;;;;;;3.67;3.22;;;24.00;41.30;;;;;;5024967;28;20487;-58
2021/11/04 02:50:10;;;;;;;4.82;3.65;;;24.00;41.30;;;;;;5020424;28;20483;-58
2021/11/04 02:52:37;;;;;;;3.70;3.25;;;24.00;41.30;;;;;;5026177;28;20049;-57
2021/11/04 02:55:06;;;;;;;3.60;2.85;;;24.00;41.30;;;;;;5027116;28;20087;-58
2021/11/04 02:57:45;;;;;;;4.35;3.58;;;24.00;41.30;;;;;;5026159;28;20474;-58
2021/11/04 03:00:15;;;;;;;4.28;3.45;;;24.00;41.30;;;;;;5021777;28;20084;-57
2021/11/04 03:02:43;;;;;;;3.42;2.85;;;24.00;41.30;;;;;;5026485;28;20060;-58
2021/11/04 03:05:10;;;;;;;3.75;3.25;;;24.00;41.30;;;;;;5026249;28;20128;-58
2021/11/04 03:07:38;;;;;;;3.72;3.35;;;24.00;41.30;;;;;;5026215;28;20717;-58
2021/11/04 03:10:06;;;;;;;3.13;2.83;;;24.00;41.30;;;;;;5025436;28;20132;-58
2021/11/04 03:12:34;;;;;;;4.07;3.30;;;24.00;41.30;;;;;;5024997;28;20152;-57
2021/11/04 03:15:07;;;;;;;;;;;24.00;41.30;;;;;;5026641;28;20544;-57
2021/11/04 03:17:38;;;;;;;3.78;3.30;;;24.00;41.30;;;;;;5025851;28;19924;-58
2021/11/04 03:20:07;;;;;;;4.38;3.53;;;24.00;41.30;;;;;;5019483;28;20049;-57
2021/11/04 03:22:35;;;;;;;3.38;3.08;;;24.00;41.30;;;;;;5028866;28;20456;-57
2021/11/04 03:25:03;;;;;;;4.05;2.95;;;24.00;41.30;;;;;;5030884;28;20053;-57
2021/11/04 03:27:32;;;;;;;3.55;3.25;;;24.00;41.30;;;;;;5028808;28;20140;-57
2021/11/04 03:30:00;;;;;;;4.03;3.60;;;24.00;41.30;;;;;;5023877;28;20087;-58
2021/11/04 03:32:28;;;;;;;3.75;3.33;;;24.10;41.30;;;;;;5030975;28;20512;-57
2021/11/04 03:34:56;;;;;;;3.30;3.00;;;24.00;41.30;;;;;;5030234;28;20072;-57
2021/11/04 03:37:29;;;;;;;3.95;3.58;;;24.10;41.40;;;;;;5029443;28;20087;-57
2021/11/04 03:39:57;;;;;;;3.58;3.28;;;24.00;41.30;;;;;;5028716;28;20579;-57
2021/11/04 03:42:24;;;;;;;4.05;3.28;;;24.00;41.30;;;;;;5030077;28;20053;-57
2021/11/04 03:44:53;;;;;;;3.30;2.80;;;24.10;41.40;;;;;;5029311;28;20498;-57
2021/11/04 03:47:22;;;;;;;3.50;3.20;;;24.00;41.30;;;;;;5030621;28;20126;-58
2021/11/04 03:49:51;;;;;;;3.50;3.13;;;24.10;41.40;;;;;;5026443;28;20139;-57
2021/11/04 03:52:19;;;;;;;3.90;3.10;;;24.10;41.40;;;;;;5030589;28;20077;-57
2021/11/04 03:54:46;;;;;;;3.40;3.10;;;24.10;41.40;;;;;;5024219;28;20084;-57
2021/11/04 03:57:15;;;;;;;2.80;2.50;;;24.10;41.40;;;;;;5018080;28;20873;-57
2021/11/04 03:59:42;;;;;;;3.53;2.95;;;24.10;41.40;;;;;;5019068;28;20141;-57
2021/11/04 04:02:09;;;;;;;3.60;2.95;;;24.00;41.40;;;;;;5025921;28;20890;-58
2021/11/04 04:04:38;;;;;;;3.55;3.25;;;24.00;41.40;;;;;;5021206;28;21561;-57
2021/11/04 04:07:06;;;;;;;5.03;3.78;;;24.00;41.90;;;;;;5015510;28;20140;-58
2021/11/04 04:09:33;;;;;;;4.07;3.13;;;24.00;41.40;;;;;;5015336;28;21212;-57
2021/11/04 04:12:00;;;;;;;3.80;2.85;;;24.10;41.50;;;;;;5018404;28;20486;-58
2021/11/04 04:14:27;;;;;;;3.25;2.95;;;24.00;41.40;;;;;;5005314;28;20469;-58
2021/11/04 04:16:54;;;;;;;3.60;2.88;;;24.00;41.40;;;;;;5008754;28;20118;-57
2021/11/04 04:19:22;;;;;;;3.63;3.28;;;24.00;41.50;;;;;;5013645;28;20216;-56
2021/11/04 04:21:49;;;;;;;3.30;2.90;;;24.00;41.50;;;;;;5027339;28;20053;-57
2021/11/04 04:24:16;;;;;;;3.47;3.17;;;24.00;41.50;;;;;;5022784;28;20088;-57
2021/11/04 04:26:44;;;;;;;3.25;2.85;;;24.00;41.50;;;;;;5018678;28;20088;-57
2021/11/04 04:29:11;;;;;;;2.78;2.47;;;24.00;41.60;;;;;;5021861;28;20084;-57
2021/11/04 04:31:38;;;;;;;4.43;2.78;;;24.00;41.60;;;;;;5038837;28;20099;-57
2021/11/04 04:34:05;;;;;;;2.63;2.42;;;24.00;41.70;;;;;;5022676;28;20096;-57
2021/11/04 04:36:32;;;;;;;3.80;3.05;;;24.00;41.70;;;;;;5024856;28;20049;-57
2021/11/04 04:38:59;;;;;;;3.22;2.92;;;24.00;41.70;;;;;;5024342;28;20071;-57
2021/11/04 04:41:27;;;;;;;5.68;2.92;;;24.00;41.80;;;;;;5022597;28;20564;-57
2021/11/04 04:43:54;;;;;;;2.83;2.53;;;24.00;41.80;;;;;;5018644;28;20130;-57
2021/11/04 04:46:21;;;;;;;3.10;2.67;;;24.00;41.90;;;;;;5015789;28;20417;-57
2021/11/04 04:48:48;;;;;;;2.92;2.63;;;24.00;41.90;;;;;;5017228;28;20053;-57
2021/11/04 04:51:16;;;;;;;2.88;2.40;;;24.00;42.10;;;;;;5022735;28;20159;-57
2021/11/04 04:53:43;;;;;;;2.38;2.17;;;24.00;42.10;;;;;;5025069;28;20131;-57
2021/11/04 04:56:11;;;;;;;3.85;3.10;;;24.00;42.20;;;;;;5019061;28;20494;-60
2021/11/04 04:58:38;;;;;;;3.47;2.90;;;24.00;42.30;;;;;;5014436;28;20052;-57
2021/11/04 05:01:05;;;;;;;4.03;3.00;;;24.00;42.40;;;;;;5015496;28;20511;-56
2021/11/04 05:03:32;;;;;;;4.00;2.85;;;24.00;42.40;;;;;;5005151;28;20111;-57
2021/11/04 05:05:59;;;;;;;3.15;2.85;;;24.00;42.40;;;;;;5007243;28;20156;-57
2021/11/04 05:08:26;;;;;;;4.68;3.03;;;24.00;42.40;;;;;;5012248;28;20159;-56
2021/11/04 05:10:54;;;;;;;4.05;2.30;;;23.90;42.40;;;;;;5010606;28;20168;-57
2021/11/04 05:13:21;;;;;;;10.63;3.70;;;24.00;42.40;;;;;;5024690;28;20138;-57
2021/11/04 05:15:48;;;;;;;4.07;2.80;;;24.00;42.50;;;;;;5036345;28;20144;-57
2021/11/04 05:18:15;;;;;;;2.90;2.55;;;24.00;42.60;;;;;;5034498;28;20080;-57
2021/11/04 05:20:43;;;;;;;2.58;2.22;;;24.00;42.50;;;;;;5022818;28;20182;-57
2021/11/04 05:23:10;;;;;;;3.30;2.63;;;24.00;42.50;;;;;;5012465;28;20562;-57
2021/11/04 05:25:37;;;;;;;3.50;2.88;;;24.00;42.60;;;;;;5007840;28;20089;-58
2021/11/04 05:28:04;;;;;;;9.68;3.53;;;24.00;42.60;;;;;;5017776;28;20584;-58
2021/11/04 05:30:31;;;;;;;4.15;2.63;;;24.00;42.60;;;;;;5021653;28;20194;-58
2021/11/04 05:32:59;;;;;;;3.47;2.65;;;24.00;42.60;;;;;;5026849;28;20164;-58
2021/11/04 05:35:26;;;;;;;4.40;2.70;;;24.00;42.70;;;;;;5027513;28;20494;-57
2021/11/04 05:37:53;;;;;;;6.22;3.13;;;24.00;42.70;;;;;;5026607;28;20435;-58
2021/11/04 05:40:20;;;;;;;2.92;2.63;;;24.00;42.70;;;;;;5025312;28;20103;-58
2021/11/04 05:42:49;;;;;;;2.88;2.47;;;24.00;42.70;;;;;;5028455;28;20068;-58
2021/11/04 05:45:16;;;;;;;3.53;2.47;;;24.00;42.70;;;;;;5026592;28;20103;-58
2021/11/04 05:47:44;;;;;;;2.63;2.42;;;24.00;42.70;;;;;;5026123;28;20052;-58
2021/11/04 05:50:12;;;;;;;3.50;2.90;;;24.00;42.80;;;;;;5019800;28;20064;-58
2021/11/04 05:52:39;;;;;;;4.97;2.17;;;24.00;42.70;;;;;;5018175;28;20132;-58
2021/11/04 05:55:06;;;;;;;5.15;3.03;;;23.90;42.70;;;;;;5024944;28;20406;-58
2021/11/04 05:57:33;;;;;;;3.90;2.80;;;24.00;42.80;;;;;;5026223;28;20130;-58
2021/11/04 06:00:01;;;;;;;3.60;3.15;;;24.00;42.80;;;;;;5006958;28;20068;-59
2021/11/04 06:02:28;;;;;;;3.03;2.72;;;24.00;42.80;;;;;;5009666;28;20081;-58
2021/11/04 06:04:56;;;;;;;3.45;2.88;;;24.00;42.90;;;;;;5011271;28;20053;-58
2021/11/04 06:07:23;;;;;;;6.63;2.60;;;24.00;42.80;;;;;;5013026;28;20095;-58
2021/11/04 06:09:50;;;;;;;2.85;2.38;;;24.00;43.00;;;;;;5012118;28;20079;-58
2021/11/04 06:12:17;;;;;;;2.85;2.45;;;24.00;43.10;;;;;;5022584;28;20140;-58
2021/11/04 06:14:44;;;;;;;4.47;2.90;;;24.00;43.20;;;;;;5024031;28;20052;-58
2021/11/04 06:17:12;;;;;;;3.00;2.53;;;24.00;43.20;;;;;;5021199;28;21757;-58
2021/11/04 06:19:39;;;;;;;2.55;1.90;;;24.00;43.10;;;;;;5012505;28;20049;-58
2021/11/04 06:22:06;;;;;;;4.43;2.35;;;24.00;43.10;;;;;;5016062;28;20091;-57
2021/11/04 06:24:33;;;;;;;2.55;2.30;;;24.10;43.30;;;;;;5005311;28;20084;-58
2021/11/04 06:27:00;;;;;;;2.25;1.95;;;24.10;43.50;;;;;;5017461;28;20787;-58
2021/11/04 06:29:28;;;;;;;3.65;2.92;;;24.10;43.60;;;;;;5004476;28;20061;-57
2021/11/04 06:31:55;;;;;;;2.97;2.40;;;24.20;43.80;;;;;;5010684;28;20135;-55
2021/11/04 06:34:22;;;;;;;5.53;2.22;;;24.20;43.90;;;;;;5014164;28;20122;-56
2021/11/04 06:36:50;;;;;;;2.88;2.55;;;24.20;44.00;;;;;;5009607;28;20053;-58
2021/11/04 06:39:17;;;;;;;2.15;1.98;;;24.20;44.10;;;;;;5006726;28;20586;-58
2021/11/04 06:41:44;;;;;;;2.90;2.55;;;24.20;44.20;;;;;;5006789;28;20080;-58
2021/11/04 06:44:11;;;;;;;2.38;2.17;;;24.20;44.20;;;;;;5015582;28;20151;-58
2021/11/04 06:46:41;;;;;;;2.45;2.25;;;24.20;44.10;;;;;;5015242;28;20084;-58
2021/11/04 06:49:13;;;;;;;5.40;2.20;;;24.30;44.10;;;;;;5010207;28;20587;-58
2021/11/04 06:51:42;;;;;;;2.10;1.85;;;24.30;44.00;;;;;;5014831;28;20494;-58
2021/11/04 06:54:14;;;;;;;1.90;1.77;;;24.30;44.00;;;;;;5018984;28;20076;-58
2021/11/04 06:56:45;;;;;;;5.10;2.60;;;24.30;44.60;;;;;;5013443;28;20147;-58
2021/11/04 06:59:22;;;;;;;2.38;1.92;;;24.30;44.00;;;;;;5008765;28;20110;-59
2021/11/04 07:01:55;;;;;;;2.08;1.95;;;24.30;44.20;;;;;;5009726;28;20136;-54
2021/11/04 07:04:34;;;;;;;2.63;1.92;;;24.30;44.50;;;;;;5004344;28;20057;-57
2021/11/04 07:07:09;;;;;;;3.00;2.45;;;24.40;44.80;;;;;;5018265;28;20247;-58
2021/11/04 07:09:42;;;;;;;2.25;1.73;;;24.40;44.90;;;;;;5001657;28;20748;-55
2021/11/04 07:12:11;;;;;;;3.72;2.00;;;24.40;45.20;;;;;;5015667;28;20794;-59
2021/11/04 07:14:41;;;;;;;3.80;2.25;;;24.40;45.30;;;;;;5013520;28;20146;-58
2021/11/04 07:17:11;;;;;;;2.10;1.90;;;24.40;45.40;;;;;;5013903;28;20110;-59
2021/11/04 07:19:39;;;;;;;2.30;2.07;;;24.40;45.40;;;;;;5005825;28;20048;-59
2021/11/04 07:22:23;;;;;;;2.80;1.88;;;24.40;45.40;;;;;;5015167;28;20798;-59
2021/11/04 07:25:05;;;;;;;2.67;2.08;;;24.50;46.00;;;;;;5015933;28;20045;-59
2021/11/04 07:27:57;;;;;;;4.60;3.17;;;24.50;45.60;;;;;;5012128;28;20080;-58
2021/11/04 07:30:27;;;;;;;6.63;2.53;;;24.50;45.80;;;;;;5004889;28;20053;-58
2021/11/04 07:32:57;;;;;;;4.20;2.40;;;24.50;45.70;;;;;;5017453;28;20114;-58
2021/11/04 07:35:27;;;;;;;3.08;2.15;;;24.50;45.70;;;;;;5015126;28;20143;-58
2021/11/04 07:37:55;;;;;;;2.00;1.80;;;24.60;45.70;;;;;;5004994;28;20057;-57
2021/11/04 07:40:24;;;;;;;3.55;1.92;;;24.60;45.70;;;;;;4995920;28;20146;-58
2021/11/04 07:42:52;;;;;;;2.20;2.00;;;24.60;45.70;;;;;;5004952;28;20139;-58
2021/11/04 07:45:20;;;;;;;2.63;2.10;;;24.60;45.80;;;;;;5008743;28;20461;-59
2021/11/04 07:47:48;;;;;;;2.75;1.90;;;24.60;45.90;;;;;;5004856;28;20140;-58
2021/11/04 07:50:20;;;;;;;5.05;2.58;;;24.60;45.90;;;;;;4992879;28;20155;-58
2021/11/04 07:52:49;;;;;;;2.80;2.10;;;24.60;45.90;;;;;;5007080;28;20134;-58
2021/11/04 07:55:16;;;;;;;2.80;1.92;;;24.60;46.00;;;;;;5004491;28;20081;-59
2021/11/04 07:57:45;;;;;;;2.53;1.90;;;24.70;46.10;;;;;;5005558;28;20049;-59
2021/11/04 08:00:15;;;;;;;3.08;2.05;;;24.70;46.00;;;;;;4999947;28;20139;-59
2021/11/04 08:02:43;;;;;;;1.75;1.40;;;24.70;46.00;;;;;;5004134;28;20596;-58
2021/11/04 08:05:13;;;;;;;4.28;1.92;;;24.70;46.20;;;;;;5009388;28;20148;-59
2021/11/04 08:07:41;;;;;;;4.38;2.40;;;24.70;46.40;;;;;;5012441;28;20044;-58
2021/11/04 08:10:11;;;;;;;4.07;1.63;;;24.70;46.50;;;;;;5002888;28;20053;-58
2021/11/04 08:12:39;;;;;;;7.63;2.17;;;24.80;46.60;;;;;;5014518;28;20081;-58
2021/11/04 08:15:08;;;;;;;2.80;1.63;;;24.80;47.20;;;;;;5019329;28;20052;-58
2021/11/04 08:17:36;;;;;;;3.70;2.13;;;24.80;46.50;;;;;;5010577;28;20135;-58
2021/11/04 08:20:05;;;;;;;2.15;1.17;;;24.80;46.50;;;;;;5002963;28;20049;-59
2021/11/04 08:22:33;;;;;;;2.05;1.63;;;24.90;46.50;;;;;;5015642;28;20053;-60
2021/11/04 08:25:00;;;;;;;4.40;2.03;;;24.90;46.40;;;;;;5012005;28;20110;-59
2021/11/04 08:27:28;;;;;;;2.58;1.60;;;25.00;46.50;;;;;;5017817;28;20537;-59
2021/11/04 08:29:55;;;;;;;1.35;1.25;;;25.00;46.40;;;;;;5003650;28;20159;-62
2021/11/04 08:32:23;;;;;;;2.70;1.70;;;25.10;46.30;;;;;;5017002;28;20086;-59
2021/11/04 08:34:50;;;;;;;4.13;1.75;;;25.10;46.40;;;;;;5019254;28;20049;-60
2021/11/04 08:37:17;;;;;;;2.05;1.85;;;25.10;46.50;;;;;;5018691;28;20110;-59
2021/11/04 08:39:44;;;;;;;4.32;1.67;;;25.10;46.50;;;;;;5035186;28;20081;-60
2021/11/04 08:42:15;;;;;;;5.43;1.60;;;25.20;46.50;;;;;;5015312;28;20044;-60
2021/11/04 08:44:43;;;;;;;3.60;1.23;;;25.20;46.50;;;;;;5017684;28;20464;-60
2021/11/04 08:47:10;;;;;;;2.60;1.20;;;25.20;46.40;;;;;;5019729;28;20559;-60
2021/11/04 08:49:38;;;;;;;2.45;1.55;;;25.20;46.40;;;;;;5010024;28;20131;-59
2021/11/04 08:52:08;;;;;;;2.53;1.50;;;25.20;46.40;;;;;;5018838;28;20060;-61
2021/11/04 08:54:36;;;;;;;1.43;1.20;;;25.20;46.40;;;;;;5018418;28;20049;-60
2021/11/04 08:57:03;;;;;;;1.88;1.55;;;25.30;46.50;;;;;;5014970;28;20389;-59
2021/11/04 08:59:31;;;;;;;1.88;1.63;;;25.30;46.60;;;;;;5007813;28;20053;-59
2021/11/04 09:01:58;;;;;;;1.73;1.42;;;25.30;46.70;;;;;;5013629;28;20142;-60
2021/11/04 09:04:27;;;;;;;4.25;1.05;;;25.30;46.60;;;;;;5020691;28;20048;-60
2021/11/04 09:06:54;;;;;;;1.27;1.17;;;25.30;46.60;;;;;;5024561;28;20052;-60
2021/11/04 09:09:22;;;;;;;2.78;1.60;;;25.30;46.60;;;;;;5001129;28;20821;-61
2021/11/04 09:11:49;;;;;;;2.05;1.33;;;25.30;46.60;;;;;;5009472;28;20084;-60
2021/11/04 09:14:17;;;;;;;6.28;1.40;;;25.40;46.40;;;;;;5017596;28;20049;-59
2021/11/04 09:16:44;;;;;;;2.83;1.30;;;25.40;46.40;;;;;;5019615;28;20095;-61
2021/11/04 09:19:12;;;;;;;3.25;1.23;;;25.50;46.50;;;;;;5005914;28;20495;-61
2021/11/04 09:21:39;;;;;;;5.00;1.40;;;25.50;46.40;;;;;;5011743;28;20085;-61
2021/11/04 09:24:07;;;;;;;1.10;1.10;;;25.60;46.30;;;;;;5014999;28;20083;-61
2021/11/04 09:26:35;;;;;;;4.15;1.67;;;25.70;46.30;;;;;;5015482;28;20048;-59
2021/11/04 09:29:04;;;;;;;6.43;2.17;;;25.70;46.40;;;;;;5009008;28;20152;-60
2021/11/04 09:31:31;;;;;;;4.95;1.55;;;25.70;45.60;;;;;;5012311;28;20045;-59
2021/11/04 09:33:59;;;;;;;3.08;1.20;;;25.70;45.50;;;;;;5010395;28;20080;-59
2021/11/04 09:36:30;;;;;;;2.40;1.48;;;25.80;45.60;;;;;;5014443;28;20116;-59
2021/11/04 09:38:58;;;;;;;3.63;1.63;;;25.80;45.70;;;;;;5008186;28;20450;-58
2021/11/04 09:41:27;;;;;;;5.28;1.75;;;25.80;45.80;;;;;;5012690;28;20045;-56
2021/11/04 09:43:56;;;;;;;1.67;1.58;;;25.80;45.90;;;;;;5014917;28;20649;-58
2021/11/04 09:46:24;;;;;;;2.58;1.55;;;25.80;45.90;;;;;;5015618;28;20384;-58
2021/11/04 09:48:53;;;;;;;2.15;1.40;;;25.90;45.90;;;;;;5037969;28;20363;-55
2021/11/04 09:51:22;;;;;;;2.63;1.30;;;25.90;45.90;;;;;;5009873;28;20068;-57
2021/11/04 09:53:50;;;;;;;11.40;1.58;;;25.90;46.00;;;;;;5015249;28;20452;-58
2021/11/04 09:56:19;;;;;;;2.20;1.50;;;25.90;46.00;;;;;;5015982;28;20049;-57
2021/11/04 09:58:47;;;;;;;1.70;1.27;;;25.90;46.00;;;;;;5006290;28;20106;-57
2021/11/04 10:01:25;;;;;;;3.00;2.10;;;26.00;46.00;;;;;;5010334;28;20064;-57
2021/11/04 10:03:54;;;;;;;1.27;1.23;;;26.00;45.90;;;;;;5018337;28;20118;-59
2021/11/04 10:06:23;;;;;;;5.38;1.30;;;26.00;45.80;;;;;;5021694;28;20103;-59
2021/11/04 10:08:52;;;;;;;2.40;1.75;;;26.00;45.80;;;;;;5012129;28;20349;-59
2021/11/04 10:11:21;;;;;;;6.63;1.63;;;26.00;45.80;;;;;;5011704;28;20585;-59
2021/11/04 10:13:49;;;;;;;1.52;1.08;;;26.10;45.80;;;;;;5018251;28;20790;-59
2021/11/04 10:16:27;;;;;;;3.05;1.33;;;26.20;45.80;;;;;;5017519;28;20401;-58
2021/11/04 10:19:08;;;;;;;1.60;1.50;;;26.20;45.70;;;;;;5009268;28;20584;-59
2021/11/04 10:21:45;;;;;;;1.70;1.10;;;26.30;45.60;;;;;;5014743;28;20336;-59
2021/11/04 10:24:19;;;;;;;3.13;2.05;;;26.30;45.60;;;;;;5037400;28;20131;-59
2021/11/04 10:26:52;;;;;;;2.60;1.33;;;26.40;45.60;;;;;;5014132;28;20505;-59
2021/11/04 10:29:24;;;;;;;3.45;1.70;;;26.40;45.60;;;;;;5005490;28;20052;-59
2021/11/04 10:31:57;;;;;;;2.00;1.30;;;26.40;45.60;;;;;;5016055;28;20080;-60
2021/11/04 10:34:27;;;;;;;1.30;1.20;;;26.50;45.60;;;;;;5015992;28;20457;-59
2021/11/04 10:37:07;;;;;;;1.75;1.27;;;26.50;45.50;;;;;;5011293;28;20090;-59
2021/11/04 10:39:40;;;;;;;4.78;1.52;;;26.50;45.40;;;;;;5007533;28;20053;-60
2021/11/04 10:42:08;;;;;;;6.07;1.48;;;26.50;45.30;;;;;;5014710;28;20171;-60
2021/11/04 10:44:35;;;;;;;1.60;1.20;;;26.50;45.10;;;;;;5016225;28;20053;-59
2021/11/04 10:47:03;;;;;;;2.67;1.30;;;26.60;45.10;;;;;;5020014;28;20053;-59
2021/11/04 10:49:45;;;;;;;1.50;0.95;;;26.60;45.10;;;;;;5003679;28;20048;-60
2021/11/04 10:52:14;;;;;;;1.65;0.90;;;26.60;45.00;;;;;;5021979;28;20143;-59
2021/11/04 10:54:46;;;;;;;3.03;1.10;;;26.70;45.00;;;;;;5015393;28;20083;-59
2021/11/04 10:57:31;;;;;;;1.65;1.17;;;26.60;44.90;;;;;;5017355;28;20293;-60
2021/11/04 11:00:20;;;;;;;2.72;1.10;;;26.60;44.90;;;;;;5004768;28;20049;-59
2021/11/04 11:03:08;;;;;;;1.00;0.88;;;26.70;45.00;;;;;;5021412;28;20084;-58
2021/11/04 11:05:37;;;;;;;4.55;1.40;;;26.70;44.90;;;;;;5020415;28;20087;-58
2021/11/04 11:08:06;;;;;;;5.22;1.25;;;26.70;44.90;;;;;;5017305;28;20456;-59
2021/11/04 11:10:35;;;;;;;4.78;1.10;;;26.70;44.90;;;;;;5012461;28;20081;-59
2021/11/04 11:13:04;;;;;;;1.73;0.90;;;26.80;44.80;;;;;;5015752;28;20148;-60
2021/11/04 11:15:37;;;;;;;4.38;1.08;;;26.70;44.70;;;;;;5016397;28;20509;-60
2021/11/04 11:18:06;;;;;;;1.33;0.88;;;26.80;44.70;;;;;;5014366;28;20080;-58
2021/11/04 11:20:33;;;;;;;3.85;0.75;;;26.80;45.10;;;;;;5007917;28;20126;-60
2021/11/04 11:23:01;;;;;;;1.23;1.13;;;26.80;44.50;;;;;;5016431;28;21220;-60
2021/11/04 11:25:34;;;;;;;0.88;0.88;;;26.80;44.40;;;;;;5018061;28;20576;-60
2021/11/04 11:28:02;;;;;;;3.92;1.10;;;26.80;44.20;;;;;;5015195;28;20053;-60
2021/11/04 11:30:29;;;;;;;1.27;0.90;;;26.80;44.20;;;;;;5010963;28;20052;-60
2021/11/04 11:33:17;;;;;;;1.05;0.80;;;26.70;44.00;;;;;;5017230;28;20084;-60
2021/11/04 11:36:15;;;;;;;2.03;0.90;;;26.70;43.90;;;;;;5013538;28;20140;-60
2021/11/04 11:39:10;;;;;;;1.90;0.88;;;26.70;43.80;;;;;;5010565;28;20106;-60
2021/11/04 11:42:06;;;;;;;1.17;0.73;;;26.70;43.70;;;;;;5012203;28;20069;-60
2021/11/04 11:45:02;;;;;;;1.50;1.00;;;26.60;43.50;;;;;;5022673;28;20830;-60
2021/11/04 11:47:42;;;;;;;2.70;0.93;;;26.60;43.40;;;;;;5022075;28;20551;-60
2021/11/04 11:50:20;;;;;;;;;;;26.60;43.20;;;;;;5012695;28;20103;-60
2021/11/04 11:52:53;;;;;;;2.72;0.98;;;26.60;43.20;;;;;;5019039;28;19924;-60
2021/11/04 11:55:37;;;;;;;2.60;1.15;;;26.60;43.40;;;;;;5023756;28;20045;-58
2021/11/04 11:58:23;;;;;;;1.33;0.60;;;26.70;43.60;;;;;;5009749;28;20053;-59
2021/11/04 12:00:59;;;;;;;1.33;0.90;;;26.70;43.70;;;;;;5009961;28;20562;-59
2021/11/04 12:03:52;;;;;;;1.20;0.70;;;26.70;43.70;;;;;;5023039;28;20041;-59
2021/11/04 12:06:39;;;;;;;1.42;0.63;;;26.70;43.50;;;;;;5022256;28;20048;-59
2021/11/04 12:09:07;;;;;;;3.50;0.70;;;26.70;43.40;;;;;;5013461;28;20136;-59
2021/11/04 12:11:48;;;;;;;1.58;0.88;;;26.70;43.20;;;;;;5019179;28;20486;-58
2021/11/04 12:14:30;;;;;;;0.50;0.50;;;26.70;43.00;;;;;;5016267;28;20118;-58
2021/11/04 12:17:08;;;;;;;0.70;0.57;;;26.70;42.80;;;;;;5019363;28;20053;-59
2021/11/04 12:19:49;;;;;;;3.40;0.70;;;26.70;42.70;;;;;;5008996;28;20111;-59
2021/11/04 12:22:40;;;;;;;0.73;0.60;;;26.70;42.60;;;;;;5021377;28;20045;-59
2021/11/04 12:25:13;;;;;;;4.60;0.68;;;26.70;42.60;;;;;;5018774;28;20083;-59
2021/11/04 12:27:45;;;;;;;2.67;0.57;;;26.70;42.50;;;;;;5017783;28;20052;-59
2021/11/04 12:30:25;;;;;;;1.33;0.65;;;26.70;42.40;;;;;;5010201;28;20168;-59
2021/11/04 12:33:01;;;;;;;1.90;0.50;;;26.70;42.40;;;;;;5019486;28;20049;-59
2021/11/04 12:35:51;;;;;;;3.40;0.82;;;26.70;42.30;;;;;;5021256;28;20045;-59
2021/11/04 12:38:23;;;;;;;1.23;0.73;;;26.70;42.40;;;;;;5018323;28;20122;-58
2021/11/04 12:41:12;;;;;;;1.35;0.65;;;26.70;42.50;;;;;;5010514;28;20132;-58
2021/11/04 12:43:39;;;;;;;0.57;0.47;;;26.70;42.40;;;;;;5019210;28;20509;-58
2021/11/04 12:46:23;;;;;;;0.60;0.45;;;26.70;42.40;;;;;;5020966;28;20127;-59
2021/11/04 12:48:56;;;;;;;3.13;0.60;;;26.70;42.30;;;;;;5035781;28;20127;-61
2021/11/04 12:51:24;;;;;;;3.95;0.60;;;26.70;42.30;;;;;;5012574;28;20742;-60
2021/11/04 12:53:53;;;;;;;0.65;0.40;;;26.80;42.30;;;;;;5017810;28;20514;-59
2021/11/04 12:56:47;;;;;;;0.50;0.50;;;26.80;42.30;;;;;;5017636;28;20045;-59
2021/11/04 12:59:48;;;;;;;6.03;1.02;;;26.80;42.00;;;;;;5012379;28;20045;-59
2021/11/04 13:02:22;;;;;;;0.63;0.63;;;26.80;41.80;;;;;;5019755;28;20065;-59
2021/11/04 13:05:03;;;;;;;0.50;0.50;;;26.80;41.70;;;;;;5016397;28;20052;-60